Time;durP1;ratioP1;P1;durP2;ratioP2;P2;SDS_P1;SDS_P2;PMS_P1;PMS_P2;Temp;Humidity;BMP_temperature;BMP_pressure;BME280_temperature;BME280_humidity;BME280_pressure;Samples;Min_cycle;Max_cycle;Signal;HPM_P1;HPM_P2
2021/12/12 00:00:38;;;;;;;36.80;16.70;;;;;;;3.04;100.00;101971.38;5094708;28;20020;-55
2021/12/12 00:03:15;;;;;;;44.67;16.88;;;;;;;3.05;100.00;101975.72;5093540;28;20032;-56
2021/12/12 00:05:46;;;;;;;31.00;15.45;;;;;;;3.07;99.38;101971.63;5094627;28;20121;-56
2021/12/12 00:08:13;;;;;;;41.63;18.38;;;;;;;3.06;99.73;101972.38;5094462;28;20034;-56
2021/12/12 00:10:43;;;;;;;41.08;17.30;;;;;;;3.07;99.82;101966.53;5093098;28;20032;-54
2021/12/12 00:13:13;;;;;;;33.17;17.20;;;;;;;3.06;99.96;101958.00;5094273;28;20024;-56
2021/12/12 00:15:39;;;;;;;46.92;16.30;;;;;;;3.08;99.90;101964.09;5093339;28;20107;-56
2021/12/12 00:18:05;;;;;;;36.97;16.27;;;;;;;3.11;99.98;101971.06;5094133;28;20116;-56
2021/12/12 00:20:31;;;;;;;32.22;14.68;;;;;;;3.14;99.88;101968.78;5094287;28;20032;-56
2021/12/12 00:22:59;;;;;;;36.47;15.13;;;;;;;3.17;99.71;101963.91;5093275;28;20102;-56
2021/12/12 00:25:30;;;;;;;33.70;14.90;;;;;;;3.18;99.74;101958.06;5093793;28;20076;-55
2021/12/12 00:27:57;;;;;;;33.38;14.73;;;;;;;3.20;99.37;101955.63;5094047;28;20095;-56
2021/12/12 00:30:22;;;;;;;34.65;14.55;;;;;;;3.21;99.24;101957.41;5093430;28;20039;-55
2021/12/12 00:32:50;;;;;;;36.05;14.48;;;;;;;3.23;99.42;101945.69;5093716;28;20028;-55
2021/12/12 00:35:16;;;;;;;32.60;14.52;;;;;;;3.24;99.36;101950.91;5093695;28;20024;-56
2021/12/12 00:37:43;;;;;;;32.03;13.18;;;;;;;3.27;99.12;101940.06;5092775;28;20024;-56
2021/12/12 00:40:18;;;;;;;35.63;15.15;;;;;;;3.31;98.90;101949.69;5093781;28;20024;-56
2021/12/12 00:42:45;;;;;;;34.35;13.05;;;;;;;3.31;98.81;101942.06;5093568;28;20034;-56
2021/12/12 00:45:13;;;;;;;32.90;14.52;;;;;;;3.33;98.92;101940.53;5092944;28;20043;-55
2021/12/12 00:47:40;;;;;;;31.75;13.13;;;;;;;3.34;98.49;101941.41;5093467;28;20464;-56
2021/12/12 00:50:10;;;;;;;32.15;13.85;;;;;;;3.34;98.89;101941.41;5093357;28;20046;-56
2021/12/12 00:52:35;;;;;;;30.17;12.98;;;;;;;3.35;98.92;101943.19;5092750;28;20024;-56
2021/12/12 00:55:00;;;;;;;31.55;13.18;;;;;;;3.35;99.03;101944.06;5093281;28;20168;-56
2021/12/12 00:57:27;;;;;;;53.17;20.30;;;;;;;3.36;99.22;101933.09;5093499;28;20024;-56
2021/12/12 00:59:52;;;;;;;34.80;14.30;;;;;;;3.36;99.33;101924.59;5092393;28;20032;-55
2021/12/12 01:02:25;;;;;;;33.75;15.93;;;;;;;3.35;99.76;101922.81;5093224;28;20035;-56
2021/12/12 01:04:54;;;;;;;33.50;12.80;;;;;;;3.34;99.60;101916.81;5092472;28;20031;-55
2021/12/12 01:07:26;;;;;;;45.45;22.92;;;;;;;3.32;100.00;101918.38;5093356;28;20024;-56
2021/12/12 01:09:56;;;;;;;46.70;18.50;;;;;;;3.32;100.00;101910.72;5092634;28;20028;-56
2021/12/12 01:12:26;;;;;;;33.30;14.55;;;;;;;3.30;100.00;101919.88;5092212;28;20059;-56
2021/12/12 01:14:59;;;;;;;49.15;21.67;;;;;;;3.31;100.00;101920.81;5093018;28;20077;-55
2021/12/12 01:17:31;;;;;;;44.55;20.65;;;;;;;3.28;100.00;101916.34;5092945;28;20034;-55
2021/12/12 01:20:12;;;;;;;35.35;14.45;;;;;;;3.32;100.00;101908.16;5092047;28;20348;-55
2021/12/12 01:22:38;;;;;;;38.50;15.25;;;;;;;3.32;100.00;101914.91;5092933;28;20134;-56
2021/12/12 01:25:12;;;;;;;43.38;16.52;;;;;;;3.32;100.00;101915.81;5092888;28;20020;-55
2021/12/12 01:27:38;;;;;;;43.42;19.25;;;;;;;3.33;100.00;101919.25;5091788;28;20044;-56
2021/12/12 01:30:08;;;;;;;56.30;22.30;;;;;;;3.34;100.00;101921.03;5093289;28;20081;-55
2021/12/12 01:32:34;;;;;;;55.08;24.15;;;;;;;3.34;100.00;101921.03;5092899;28;20028;-56
2021/12/12 01:35:01;;;;;;;37.28;15.40;;;;;;;3.36;100.00;101914.41;5092272;28;20043;-56
2021/12/12 01:40:01;;;;;;;40.88;16.85;;;;;;;3.38;100.00;101925.56;5092012;28;20036;-55
2021/12/12 01:42:33;;;;;;;45.35;18.67;;;;;;;3.37;100.00;101918.69;5092504;28;20468;-55
2021/12/12 01:45:06;;;;;;;92.10;42.13;;;;;;;3.38;100.00;101917.94;5092858;28;20026;-55
2021/12/12 01:47:42;;;;;;;42.45;16.88;;;;;;;3.37;100.00;101918.69;5092219;28;20031;-55
2021/12/12 01:50:15;;;;;;;40.30;17.00;;;;;;;3.37;100.00;101927.25;5092654;28;20077;-55
2021/12/12 01:52:41;;;;;;;36.90;14.30;;;;;;;3.37;100.00;101922.16;5092527;28;20057;-55
2021/12/12 01:55:24;;;;;;;37.15;15.05;;;;;;;3.40;100.00;101922.38;5091741;28;20391;-56
2021/12/12 01:57:52;;;;;;;39.15;16.02;;;;;;;3.37;100.00;101921.25;5092640;28;20036;-56
2021/12/12 02:00:38;;;;;;;;;;;;;;;3.45;100.00;101922.72;5092965;28;20039;-55
2021/12/12 02:03:06;;;;;;;31.23;14.55;;;;;;;3.39;100.00;101920.59;5091187;28;19912;-55
2021/12/12 02:05:32;;;;;;;38.95;15.32;;;;;;;3.42;100.00;101919.94;5092550;28;20020;-56
2021/12/12 02:08:03;;;;;;;40.08;15.55;;;;;;;3.43;100.00;101921.72;5091979;28;20480;-56
2021/12/12 02:10:32;;;;;;;44.15;16.08;;;;;;;3.41;100.00;101918.19;5092686;28;20058;-54
2021/12/12 02:13:03;;;;;;;34.20;14.70;;;;;;;3.44;100.00;101913.31;5092531;28;20028;-56
2021/12/12 02:15:31;;;;;;;40.50;16.13;;;;;;;3.42;100.00;101912.28;5091612;28;20446;-56
2021/12/12 02:17:57;;;;;;;42.58;15.15;;;;;;;3.45;100.00;101912.53;5092376;28;20103;-56
2021/12/12 02:20:40;;;;;;;39.60;15.13;;;;;;;3.45;100.00;101907.44;5092510;28;20103;-56
2021/12/12 02:23:33;;;;;;;41.97;14.88;;;;;;;3.49;100.00;101916.22;5095532;28;20024;-55
2021/12/12 02:37:02;;;;;;;42.80;14.82;;;;;;;3.52;100.00;101907.09;5095519;28;20105;-55
2021/12/12 02:39:27;;;;;;;;;;;;;;;3.58;100.00;101905.03;5096457;28;20039;-55
2021/12/12 02:41:58;;;;;;;35.47;15.00;;;;;;;3.57;100.00;101898.16;5095877;28;20294;-56
2021/12/12 02:44:29;;;;;;;40.47;15.10;;;;;;;3.58;100.00;101887.19;5095284;28;20020;-56
2021/12/12 02:46:58;;;;;;;36.50;14.32;;;;;;;3.59;100.00;101866.03;5095800;28;20020;-55
2021/12/12 02:50:13;;;;;;;35.90;13.98;;;;;;;3.64;100.00;101876.53;5095943;28;20057;-56
2021/12/12 02:52:16;;;;;;;34.90;14.30;;;;;;;3.67;100.00;101875.88;5080741;28;20032;-55
2021/12/12 02:54:42;;;;;;;38.65;14.15;;;;;;;3.68;100.00;101870.00;5095687;28;20055;-55
2021/12/12 02:57:09;;;;;;;49.13;14.38;;;;;;;3.68;100.00;101867.47;5095591;28;20020;-55
2021/12/12 02:59:37;;;;;;;39.67;14.20;;;;;;;3.70;100.00;101868.47;5094905;28;20024;-55
2021/12/12 03:02:07;;;;;;;39.95;14.30;;;;;;;3.73;100.00;101863.59;5095587;28;20031;-55
2021/12/12 03:04:34;;;;;;;42.13;14.73;;;;;;;3.73;100.00;101871.25;5094733;28;20028;-55
2021/12/12 03:07:00;;;;;;;42.42;16.02;;;;;;;3.72;100.00;101872.00;5095591;28;20463;-53
2021/12/12 03:09:36;;;;;;;41.72;15.13;;;;;;;3.73;100.00;101871.25;5095481;28;20024;-54
2021/12/12 03:12:07;;;;;;;41.55;14.93;;;;;;;3.76;100.00;101867.25;5094544;28;20158;-55
2021/12/12 03:14:35;;;;;;;37.47;15.00;;;;;;;3.76;100.00;101867.25;5095369;28;20028;-55
2021/12/12 03:17:04;;;;;;;36.33;15.45;;;;;;;3.78;100.00;101860.63;5095348;28;20039;-55
2021/12/12 03:19:30;;;;;;;34.67;14.98;;;;;;;3.79;100.00;101866.59;5094432;28;20043;-55
2021/12/12 03:21:56;;;;;;;38.17;15.32;;;;;;;3.83;100.00;101867.72;5094980;28;20032;-55
2021/12/12 03:24:25;;;;;;;44.60;15.68;;;;;;;3.83;100.00;101863.50;5095075;28;20043;-55
2021/12/12 03:26:54;;;;;;;39.63;15.63;;;;;;;3.85;100.00;101856.84;5094068;28;20424;-56
2021/12/12 03:29:20;;;;;;;43.85;15.68;;;;;;;3.85;100.00;101841.56;5095070;28;20063;-54
2021/12/12 03:31:50;;;;;;;45.30;16.35;;;;;;;3.88;100.00;101836.66;5094959;28;20056;-55
2021/12/12 03:34:21;;;;;;;47.35;16.80;;;;;;;3.90;100.00;101837.69;5093455;28;20394;-56
2021/12/12 03:36:49;;;;;;;39.22;16.73;;;;;;;3.90;100.00;101830.03;5094707;28;20024;-56
2021/12/12 03:39:28;;;;;;;42.28;16.25;;;;;;;3.93;100.00;101830.22;5094895;28;20126;-55
2021/12/12 03:41:55;;;;;;;42.63;17.35;;;;;;;3.93;100.00;101831.91;5094808;28;20114;-56
2021/12/12 03:44:25;;;;;;;41.85;17.35;;;;;;;3.94;100.00;101833.69;5094632;28;20030;-55
2021/12/12 03:46:54;;;;;;;38.30;17.85;;;;;;;3.95;100.00;101832.88;5093764;28;20032;-55
2021/12/12 03:49:20;;;;;;;38.85;17.30;;;;;;;3.97;100.00;101835.56;5094573;28;20035;-54
2021/12/12 03:51:46;;;;;;;36.10;17.00;;;;;;;3.99;100.00;101834.00;5094285;28;20028;-55
2021/12/12 03:54:13;;;;;;;37.72;16.77;;;;;;;4.01;100.00;101832.47;5093857;28;20057;-56
2021/12/12 03:56:41;;;;;;;37.57;17.47;;;;;;;4.01;100.00;101838.44;5094418;28;20112;-55
2021/12/12 03:59:07;;;;;;;37.22;17.17;;;;;;;4.01;100.00;101833.34;5094452;28;20032;-56
2021/12/12 04:01:43;;;;;;;36.33;17.25;;;;;;;4.02;100.00;101834.25;5093501;28;20387;-55
2021/12/12 04:04:13;;;;;;;43.88;18.05;;;;;;;4.04;100.00;101842.88;5094238;28;20016;-55
2021/12/12 04:06:39;;;;;;;41.22;18.73;;;;;;;4.05;100.00;101835.31;5094301;28;20039;-55
2021/12/12 04:09:07;;;;;;;39.05;18.50;;;;;;;4.05;100.00;101835.31;5093551;28;20024;-56
2021/12/12 04:11:39;;;;;;;37.55;18.58;;;;;;;4.08;100.00;101834.66;5094063;28;20478;-56
2021/12/12 04:14:07;;;;;;;36.75;19.70;;;;;;;4.08;100.00;101844.88;5094115;28;20024;-56
2021/12/12 04:16:36;;;;;;;41.78;20.33;;;;;;;4.09;100.00;101849.19;5093142;28;20020;-57
2021/12/12 04:19:05;;;;;;;41.70;20.27;;;;;;;4.11;100.00;101851.09;5094126;28;20031;-55
2021/12/12 04:21:31;;;;;;;45.58;21.73;;;;;;;4.11;100.00;101840.00;5094112;28;20024;-56
2021/12/12 04:23:57;;;;;;;39.60;21.30;;;;;;;4.12;100.00;101850.31;5093220;28;20353;-56
2021/12/12 04:26:32;;;;;;;42.90;21.35;;;;;;;4.15;100.00;101849.66;5093825;28;20096;-56
2021/12/12 04:29:14;;;;;;;37.53;21.02;;;;;;;4.18;100.00;101846.44;5092987;28;20151;-56
2021/12/12 04:32:02;;;;;;;34.30;20.25;;;;;;;4.20;100.00;101845.75;5093677;28;20028;-55
2021/12/12 04:34:31;;;;;;;36.70;20.05;;;;;;;4.21;100.00;101839.88;5093822;28;20024;-54
2021/12/12 04:37:00;;;;;;;41.75;21.00;;;;;;;4.21;100.00;101841.53;5092941;28;20031;-55
2021/12/12 04:39:29;;;;;;;41.22;20.00;;;;;;;4.22;100.00;101841.66;5093578;28;20032;-56
2021/12/12 04:42:01;;;;;;;36.40;18.25;;;;;;;4.24;100.00;101837.53;5093642;28;20187;-56
2021/12/12 04:44:35;;;;;;;32.60;18.38;;;;;;;4.23;100.00;101843.41;5092020;28;20032;-55
2021/12/12 04:50:38;;;;;;;29.85;17.52;;;;;;;4.27;100.00;101853.09;5010909;28;20038;-56
2021/12/12 04:53:11;;;;;;;31.98;18.10;;;;;;;4.28;100.00;101844.63;5011383;28;20034;-56
2021/12/12 04:56:13;;;;;;;29.52;18.35;;;;;;;4.29;100.00;101854.06;5061162;28;20372;-57
2021/12/12 04:58:45;;;;;;;33.63;18.38;;;;;;;4.31;100.00;101849.06;5047355;28;20048;-56
2021/12/12 05:01:18;;;;;;;27.13;17.05;;;;;;;4.32;100.00;101849.97;5093392;28;20020;-55
2021/12/12 05:03:51;;;;;;;31.40;17.55;;;;;;;4.34;100.00;101843.28;5093330;28;20488;-56
2021/12/12 05:06:33;;;;;;;26.20;17.42;;;;;;;4.35;100.00;101860.38;5093079;28;20032;-54
2021/12/12 05:09:24;;;;;;;33.10;17.65;;;;;;;4.36;100.00;101867.28;5093433;28;20030;-56
2021/12/12 05:12:14;;;;;;;26.73;16.67;;;;;;;4.37;100.00;101861.38;5091730;28;20148;-56
2021/12/12 05:14:45;;;;;;;31.15;17.65;;;;;;;4.37;100.00;101863.94;5093148;28;20024;-55
2021/12/12 05:17:22;;;;;;;29.40;16.00;;;;;;;4.39;100.00;101867.47;5093309;28;20028;-56
2021/12/12 05:19:54;;;;;;;26.67;16.88;;;;;;;4.41;100.00;101871.03;5092305;28;20024;-53
2021/12/12 05:22:33;;;;;;;30.15;17.60;;;;;;;4.41;100.00;101876.13;5093184;28;20053;-56
2021/12/12 05:25:03;;;;;;;27.52;16.45;;;;;;;4.43;100.00;101865.25;5092283;28;20039;-56
2021/12/12 05:27:31;;;;;;;36.58;17.45;;;;;;;4.44;100.00;101861.03;5092844;28;20047;-56
2021/12/12 05:29:56;;;;;;;;;;;;;;;4.49;100.00;101859.69;5093441;28;20028;-56
2021/12/12 05:32:22;;;;;;;27.77;16.40;;;;;;;4.48;100.00;101860.50;5092180;28;20373;-56
2021/12/12 05:34:49;;;;;;;29.58;17.23;;;;;;;4.48;100.00;101862.13;5092806;28;20021;-54
2021/12/12 05:37:17;;;;;;;25.65;17.17;;;;;;;4.49;100.00;101872.44;5092800;28;20430;-56
2021/12/12 05:39:43;;;;;;;28.65;17.45;;;;;;;4.50;100.00;101875.91;5091866;28;20032;-56
2021/12/12 05:42:10;;;;;;;25.17;16.90;;;;;;;4.52;100.00;101874.34;5092640;28;20460;-56
2021/12/12 05:44:35;;;;;;;25.67;16.58;;;;;;;4.52;100.00;101870.13;5092842;28;20052;-56
2021/12/12 05:47:05;;;;;;;24.90;16.65;;;;;;;4.55;100.00;101874.56;5091921;28;20128;-56
2021/12/12 05:49:32;;;;;;;27.45;16.75;;;;;;;4.56;100.00;101884.88;5092912;28;20056;-57
2021/12/12 05:51:59;;;;;;;24.58;15.90;;;;;;;4.58;100.00;101879.88;5092637;28;20028;-55
2021/12/12 05:54:26;;;;;;;24.95;17.17;;;;;;;4.57;100.00;101884.13;5091963;28;20031;-55
2021/12/12 05:56:53;;;;;;;24.45;16.42;;;;;;;4.60;100.00;101884.31;5095371;28;20036;-56
2021/12/12 05:59:19;;;;;;;23.45;15.57;;;;;;;4.61;100.00;101881.00;5096660;28;20052;-56
2021/12/12 06:01:46;;;;;;;24.33;16.37;;;;;;;4.64;100.00;101874.34;5095979;28;20028;-55
2021/12/12 06:04:11;;;;;;;26.13;16.63;;;;;;;4.66;100.00;101882.97;5096744;28;20020;-56
2021/12/12 06:06:40;;;;;;;21.27;15.63;;;;;;;4.68;100.00;101884.84;5096462;28;20103;-56
2021/12/12 06:09:08;;;;;;;28.30;16.38;;;;;;;4.69;100.00;101884.09;5095637;28;20051;-55
2021/12/12 06:11:36;;;;;;;21.63;15.75;;;;;;;4.72;100.00;101893.63;5096279;28;20035;-56
2021/12/12 06:14:04;;;;;;;24.65;16.80;;;;;;;4.74;100.00;101892.94;5096507;28;20028;-55
2021/12/12 06:16:31;;;;;;;23.40;16.33;;;;;;;4.75;100.00;101898.94;5095873;28;20028;-55
2021/12/12 06:19:04;;;;;;;24.55;16.50;;;;;;;4.77;100.00;101898.25;5096113;28;20023;-56
2021/12/12 06:21:29;;;;;;;21.80;16.00;;;;;;;4.80;100.00;101902.69;5095558;28;20032;-56
2021/12/12 06:23:55;;;;;;;23.95;16.67;;;;;;;4.82;100.00;101908.81;5096325;28;20031;-56
2021/12/12 06:26:22;;;;;;;26.02;16.15;;;;;;;4.84;100.00;101904.72;5096044;28;20123;-56
2021/12/12 06:28:48;;;;;;;23.80;17.08;;;;;;;4.87;100.00;101904.03;5095312;28;20077;-57
2021/12/12 06:31:14;;;;;;;26.25;18.08;;;;;;;4.89;100.00;101895.72;5096199;28;20020;-56
2021/12/12 06:33:41;;;;;;;31.80;19.13;;;;;;;4.90;100.00;101894.91;5096223;28;20504;-56
2021/12/12 06:36:10;;;;;;;26.80;19.40;;;;;;;4.92;100.00;101893.34;5095330;28;20069;-57
2021/12/12 06:38:38;;;;;;;26.40;19.40;;;;;;;4.95;100.00;101898.66;5096092;28;20023;-56
2021/12/12 06:41:03;;;;;;;;;;;;;;;5.02;100.00;101897.44;5096513;28;20054;-56
2021/12/12 06:43:29;;;;;;;29.15;19.58;;;;;;;4.99;100.00;101902.31;5095152;28;20324;-56
2021/12/12 06:45:55;;;;;;;25.63;19.42;;;;;;;5.00;100.00;101900.66;5095750;28;20116;-56
2021/12/12 06:48:22;;;;;;;28.27;19.50;;;;;;;5.02;100.00;101912.78;5095863;28;20020;-56
2021/12/12 06:50:50;;;;;;;28.40;18.88;;;;;;;5.03;100.00;101901.75;5094885;28;20399;-56
2021/12/12 06:53:18;;;;;;;31.15;19.35;;;;;;;5.06;100.00;101899.41;5095441;28;20028;-56
2021/12/12 06:55:45;;;;;;;27.83;19.00;;;;;;;5.07;100.00;101898.66;5095733;28;20101;-56
2021/12/12 06:58:13;;;;;;;34.45;20.35;;;;;;;5.09;100.00;101921.75;5094905;28;20191;-56
2021/12/12 07:00:39;;;;;;;;;;;;;;;5.14;100.00;101915.28;5095806;28;20031;-56
2021/12/12 07:03:05;;;;;;;31.88;19.77;;;;;;;5.13;100.00;101913.50;5095429;28;20279;-57
2021/12/12 07:05:31;;;;;;;30.05;20.88;;;;;;;5.14;100.00;101910.16;5094785;28;20032;-56
2021/12/12 07:07:57;;;;;;;35.00;21.58;;;;;;;5.18;100.00;101916.38;5094649;28;20024;-56
2021/12/12 07:10:26;;;;;;;33.42;21.30;;;;;;;5.18;100.00;101907.03;5094956;28;20034;-56
2021/12/12 07:12:55;;;;;;;36.95;22.60;;;;;;;5.19;100.00;101903.69;5095329;28;20052;-55
2021/12/12 07:15:24;;;;;;;35.92;22.67;;;;;;;5.24;100.00;101893.78;5095189;28;20032;-56
2021/12/12 07:17:57;;;;;;;35.42;23.52;;;;;;;5.25;100.00;101909.25;5094360;28;20024;-56
2021/12/12 07:20:23;;;;;;;33.30;22.38;;;;;;;5.31;100.00;101910.41;5095368;28;20026;-56
2021/12/12 07:22:48;;;;;;;32.28;21.77;;;;;;;5.30;100.00;101909.53;5095198;28;20099;-55
2021/12/12 07:25:14;;;;;;;33.15;21.70;;;;;;;5.33;100.00;101906.31;5094350;28;20106;-57
2021/12/12 07:27:39;;;;;;;40.22;22.63;;;;;;;5.36;100.00;101903.94;5094638;28;20040;-57
2021/12/12 07:30:07;;;;;;;35.53;22.65;;;;;;;5.37;100.00;101914.28;5094919;28;20028;-56
2021/12/12 07:32:34;;;;;;;34.80;23.48;;;;;;;5.39;100.00;101907.59;5094010;28;20041;-56
2021/12/12 07:34:59;;;;;;;39.25;23.17;;;;;;;5.41;100.00;101915.38;5094944;28;20035;-56
2021/12/12 07:37:25;;;;;;;34.88;22.92;;;;;;;5.42;100.00;101907.81;5095011;28;20028;-56
2021/12/12 07:39:51;;;;;;;32.20;22.65;;;;;;;5.45;100.00;101912.25;5093901;28;20044;-56
2021/12/12 07:42:18;;;;;;;38.42;23.08;;;;;;;5.48;100.00;101914.13;5094839;28;20024;-56
2021/12/12 07:44:44;;;;;;;38.20;23.42;;;;;;;5.50;100.00;101921.13;5094257;28;20403;-54
2021/12/12 07:47:13;;;;;;;36.42;23.02;;;;;;;5.50;100.00;101913.47;5093983;28;20032;-56
2021/12/12 07:49:42;;;;;;;39.80;22.98;;;;;;;5.54;100.00;101933.31;5094297;28;20028;-56
2021/12/12 07:52:14;;;;;;;41.05;23.55;;;;;;;5.55;100.00;101924.88;5094274;28;20032;-54
2021/12/12 07:54:40;;;;;;;38.50;24.92;;;;;;;5.58;100.00;101927.63;5093827;28;20099;-56
2021/12/12 07:57:07;;;;;;;36.95;23.67;;;;;;;5.60;100.00;101927.72;5094297;28;20099;-53
2021/12/12 07:59:38;;;;;;;40.00;22.48;;;;;;;5.61;100.00;101929.50;5093963;28;20466;-56
2021/12/12 08:02:06;;;;;;;37.47;24.40;;;;;;;5.63;100.00;101942.38;5094154;28;20456;-56
2021/12/12 08:04:36;;;;;;;45.05;24.48;;;;;;;5.64;100.00;101939.06;5094437;28;20043;-57
2021/12/12 08:07:02;;;;;;;46.70;24.75;;;;;;;5.66;100.00;101932.38;5093505;28;20020;-56
2021/12/12 08:09:29;;;;;;;39.75;24.20;;;;;;;5.65;100.00;101939.16;5094246;28;20028;-54
2021/12/12 08:11:55;;;;;;;44.13;25.17;;;;;;;5.66;100.00;101938.38;5094115;28;20055;-55
2021/12/12 08:14:24;;;;;;;46.53;25.45;;;;;;;5.70;100.00;101949.72;5093451;28;20055;-55
2021/12/12 08:16:51;;;;;;;39.47;25.77;;;;;;;5.70;100.00;101952.25;5094045;28;20057;-55
2021/12/12 08:19:19;;;;;;;46.22;26.48;;;;;;;5.73;100.00;101955.00;5093913;28;20051;-55
2021/12/12 08:21:46;;;;;;;;;;;;;;;5.78;100.00;101953.66;5093459;28;20443;-54
2021/12/12 08:24:13;;;;;;;41.47;26.38;;;;;;;5.78;100.00;101958.75;5093731;28;19951;-57
2021/12/12 08:26:43;;;;;;;45.67;26.95;;;;;;;5.80;100.00;101962.34;5093674;28;20040;-50
2021/12/12 08:29:10;;;;;;;44.63;25.58;;;;;;;5.82;100.00;101968.41;5092974;28;20528;-55
2021/12/12 08:31:37;;;;;;;40.50;26.98;;;;;;;5.83;100.00;101969.31;5093772;28;20081;-55
2021/12/12 08:34:06;;;;;;;47.57;27.03;;;;;;;5.85;100.00;101975.41;5093610;28;20016;-56
2021/12/12 08:36:38;;;;;;;42.78;25.98;;;;;;;5.87;100.00;101972.16;5092625;28;20263;-57
2021/12/12 08:39:06;;;;;;;44.75;26.65;;;;;;;5.87;100.00;101969.63;5093298;28;20450;-56
2021/12/12 08:41:31;;;;;;;52.38;25.77;;;;;;;5.90;100.00;101971.47;5093284;28;20471;-56
2021/12/12 08:43:57;;;;;;;46.70;26.20;;;;;;;5.93;100.00;101979.38;5092631;28;20031;-56
2021/12/12 08:46:23;;;;;;;48.33;27.25;;;;;;;5.94;100.00;101978.59;5093637;28;20027;-56
2021/12/12 08:48:51;;;;;;;42.13;26.50;;;;;;;5.97;100.00;101983.03;5093099;28;20405;-56
2021/12/12 08:51:29;;;;;;;46.83;27.30;;;;;;;5.99;100.00;101984.03;5093276;28;20024;-56
2021/12/12 08:54:01;;;;;;;52.35;26.90;;;;;;;5.99;100.00;101984.97;5093162;28;20115;-56
2021/12/12 08:56:42;;;;;;;50.50;27.25;;;;;;;6.01;100.00;101985.03;5092664;28;20137;-57
2021/12/12 08:59:15;;;;;;;48.50;27.38;;;;;;;6.02;100.00;101980.03;5093228;28;20028;-57
2021/12/12 09:01:41;;;;;;;53.05;27.00;;;;;;;6.05;100.00;101985.34;5093295;28;20487;-56
2021/12/12 09:04:10;;;;;;;49.65;26.30;;;;;;;6.05;100.00;101984.47;5092345;28;20028;-56
2021/12/12 09:06:55;;;;;;;50.15;27.95;;;;;;;6.09;100.00;101986.44;5093257;28;20020;-56
2021/12/12 09:09:30;;;;;;;50.42;27.35;;;;;;;6.10;100.00;102001.88;5093133;28;20380;-56
2021/12/12 09:12:01;;;;;;;48.97;27.20;;;;;;;6.12;100.00;101991.78;5092224;28;20031;-56
2021/12/12 09:14:48;;;;;;;51.75;26.58;;;;;;;6.14;100.00;102004.66;5093028;28;20043;-56
2021/12/12 09:17:16;;;;;;;51.40;28.05;;;;;;;6.14;100.00;102012.34;5092312;28;20115;-55
2021/12/12 09:20:03;;;;;;;52.72;27.88;;;;;;;6.17;100.00;102005.75;5092837;28;20051;-56
2021/12/12 09:22:45;;;;;;;49.65;28.25;;;;;;;6.19;100.00;102016.09;5093033;28;20049;-56
2021/12/12 09:25:12;;;;;;;47.17;27.70;;;;;;;6.19;100.00;102021.22;5092424;28;20024;-56
2021/12/12 09:27:48;;;;;;;49.10;28.33;;;;;;;6.19;100.00;102024.66;5092395;28;20048;-56
2021/12/12 09:30:21;;;;;;;51.10;29.60;;;;;;;6.21;100.00;102035.91;5092481;28;20093;-56
2021/12/12 09:33:02;;;;;;;53.13;27.88;;;;;;;6.24;100.00;102030.09;5091998;28;20062;-56
2021/12/12 09:35:50;;;;;;;51.53;26.80;;;;;;;6.23;100.00;102031.75;5092894;28;20421;-56
2021/12/12 09:38:29;;;;;;;57.03;27.17;;;;;;;6.25;100.00;102040.44;5091948;28;20460;-55
2021/12/12 09:41:04;;;;;;;52.90;26.90;;;;;;;6.28;100.00;102044.00;5092751;28;20118;-56
2021/12/12 09:43:55;;;;;;;50.63;26.90;;;;;;;6.26;100.00;102036.19;5092652;28;20032;-56
2021/12/12 09:46:38;;;;;;;53.60;27.65;;;;;;;6.29;100.00;102036.41;5091806;28;20528;-56
2021/12/12 09:52:36;;;;;;;50.17;25.50;;;;;;;6.33;100.00;102048.63;5091882;28;20451;-56
2021/12/12 09:55:06;;;;;;;49.67;26.20;;;;;;;6.36;100.00;102035.13;5092646;28;20028;-56
2021/12/12 09:57:49;;;;;;;48.17;25.95;;;;;;;6.38;100.00;102036.13;5092435;28;20534;-56
2021/12/12 10:00:23;;;;;;;50.88;25.52;;;;;;;6.39;100.00;102040.44;5091615;28;20039;-56
2021/12/12 10:03:02;;;;;;;46.58;27.02;;;;;;;6.41;100.00;102046.56;5092568;28;20028;-56
2021/12/12 10:05:53;;;;;;;49.50;25.35;;;;;;;6.43;100.00;102040.75;5092755;28;20050;-55
2021/12/12 10:08:36;;;;;;;48.10;26.35;;;;;;;6.45;100.00;102035.72;5091640;28;20452;-54
2021/12/12 10:11:17;;;;;;;50.63;26.48;;;;;;;6.48;100.00;102035.94;5092642;28;20038;-51
2021/12/12 10:13:51;;;;;;;49.30;27.10;;;;;;;6.49;100.00;102035.13;5091672;28;20032;-55
2021/12/12 10:16:33;;;;;;;53.88;27.30;;;;;;;6.54;100.00;102030.31;5092488;28;20066;-54
2021/12/12 10:19:26;;;;;;;51.00;26.42;;;;;;;6.55;100.00;102030.41;5092102;28;20085;-54
2021/12/12 10:22:20;;;;;;;51.70;25.25;;;;;;;6.60;100.00;102033.28;5091696;28;20424;-55
2021/12/12 10:24:58;;;;;;;51.05;26.25;;;;;;;6.62;100.00;102035.94;5074545;28;20032;-54
2021/12/12 10:27:41;;;;;;;53.83;26.48;;;;;;;6.64;100.00;102039.50;5091410;28;20166;-54
2021/12/12 10:30:31;;;;;;;51.92;25.77;;;;;;;6.66;100.00;102040.47;5092428;28;20099;-54
2021/12/12 10:33:18;;;;;;;45.65;25.77;;;;;;;6.69;100.00;102043.25;5092260;28;20024;-54
2021/12/12 10:35:53;;;;;;;55.35;24.83;;;;;;;6.68;100.00;102039.78;5091191;28;20020;-54
2021/12/12 10:38:24;;;;;;;46.75;25.85;;;;;;;6.71;100.00;102039.09;5092388;28;20036;-55
2021/12/12 10:40:55;;;;;;;46.83;25.88;;;;;;;6.72;100.00;102036.63;5092255;28;20036;-54
2021/12/12 10:43:30;;;;;;;48.70;25.52;;;;;;;6.75;100.00;102041.06;5093013;28;20078;-53
2021/12/12 10:46:05;;;;;;;48.83;26.25;;;;;;;6.78;100.00;102042.94;5095718;28;20031;-55
2021/12/12 10:48:43;;;;;;;50.92;27.00;;;;;;;6.77;100.00;102039.50;5095290;28;20024;-54
2021/12/12 10:51:08;;;;;;;;;;;;;;;6.83;100.00;102045.03;5096303;28;20020;-55
2021/12/12 10:54:01;;;;;;;52.42;26.10;;;;;;;6.84;100.00;102051.03;5095780;28;19918;-55
2021/12/12 10:56:34;;;;;;;47.08;26.40;;;;;;;6.84;100.00;102054.50;5094888;28;20073;-56
2021/12/12 10:59:04;;;;;;;49.30;26.63;;;;;;;6.86;100.00;102050.31;5095594;28;20050;-54
2021/12/12 11:01:36;;;;;;;47.05;27.15;;;;;;;6.87;100.00;102054.66;5096081;28;20024;-55
2021/12/12 11:04:17;;;;;;;51.50;27.13;;;;;;;6.88;100.00;102051.31;5094756;28;20028;-54
2021/12/12 11:06:58;;;;;;;45.67;26.45;;;;;;;6.90;100.00;102044.59;5095357;28;20377;-54
2021/12/12 11:09:34;;;;;;;45.40;26.52;;;;;;;6.91;100.00;102053.19;5095531;28;20016;-55
2021/12/12 11:12:12;;;;;;;45.95;25.67;;;;;;;6.94;100.00;102039.69;5095382;28;20087;-55
2021/12/12 11:14:45;;;;;;;42.50;25.80;;;;;;;6.98;100.00;102036.53;5095190;28;20024;-54
2021/12/12 11:17:21;;;;;;;45.33;25.88;;;;;;;7.01;100.00;102026.47;5094350;28;20067;-55
2021/12/12 11:19:53;;;;;;;44.28;26.30;;;;;;;7.02;100.00;102033.38;5095214;28;20046;-55
2021/12/12 11:22:30;;;;;;;40.33;26.25;;;;;;;7.03;100.00;102030.00;5095197;28;20023;-55
2021/12/12 11:25:13;;;;;;;41.65;25.15;;;;;;;7.06;100.00;102035.31;5094209;28;20422;-54
2021/12/12 11:27:45;;;;;;;42.30;25.83;;;;;;;7.07;100.00;102035.41;5094684;28;20045;-55
2021/12/12 11:30:18;;;;;;;40.70;24.00;;;;;;;7.08;100.00;102028.63;5095154;28;20062;-55
2021/12/12 11:32:44;;;;;;;37.00;24.52;;;;;;;7.09;100.00;102021.03;5094185;28;20024;-55
2021/12/12 11:35:12;;;;;;;40.40;25.67;;;;;;;7.11;100.00;102028.81;5094916;28;20494;-55
2021/12/12 11:37:54;;;;;;;38.67;23.27;;;;;;;7.14;100.00;102028.13;5094204;28;20051;-53
2021/12/12 11:40:24;;;;;;;36.65;23.15;;;;;;;7.15;100.00;102037.59;5094595;28;20028;-55
2021/12/12 11:43:10;;;;;;;39.10;24.60;;;;;;;7.17;100.00;102034.31;5094460;28;20381;-54
2021/12/12 11:45:42;;;;;;;39.35;23.30;;;;;;;7.17;100.00;102029.19;5093918;28;20028;-54
2021/12/12 11:48:15;;;;;;;38.63;23.58;;;;;;;7.20;100.00;102034.50;5094570;28;20112;-54
2021/12/12 11:51:07;;;;;;;38.45;23.13;;;;;;;7.21;100.00;102031.16;5094411;28;20544;-55